Time;durP1;ratioP1;P1;durP2;ratioP2;P2;SDS_P1;SDS_P2;PMS_P1;PMS_P2;Temp;Humidity;BMP_temperature;BMP_pressure;BME280_temperature;BME280_humidity;BME280_pressure;Samples;Min_cycle;Max_cycle;Signal;HPM_P1;HPM_P2
2022/02/07 00:00:16;;;;;;;1.63;0.60;;;;;;;;;;6188721;23;20036;-83
2022/02/07 00:05:27;;;;;;;3.05;0.80;;;;;;;;;;6188777;23;20375;-83
2022/02/07 00:07:56;;;;;;;4.75;0.90;;;;;;;;;;6186668;23;20040;-83
2022/02/07 00:10:23;;;;;;;1.50;0.90;;;;;;;;;;6161595;23;20336;-83
2022/02/07 00:12:50;;;;;;;1.60;1.08;;;;;;;;;;6186551;23;20013;-83
2022/02/07 00:15:18;;;;;;;2.38;0.80;;;;;;;;;;6187426;23;20096;-83
2022/02/07 00:17:45;;;;;;;2.83;1.13;;;;;;;;;;6161707;23;20486;-83
2022/02/07 00:20:16;;;;;;;3.25;1.40;;;;;;;;;;6161470;23;20020;-83
2022/02/07 00:22:43;;;;;;;3.55;1.00;;;;;;;;;;6162535;23;20079;-83
2022/02/07 00:25:08;;;;;;;3.55;1.77;;;;;;;;;;6160782;23;20044;-84
2022/02/07 00:27:35;;;;;;;5.03;1.33;;;;;;;;;;6162083;23;20027;-83
2022/02/07 00:30:04;;;;;;;3.10;1.20;;;;;;;;;;6161946;22;20104;-84
2022/02/07 00:32:30;;;;;;;2.05;1.00;;;;;;;;;;6186753;23;20353;-83
2022/02/07 00:34:58;;;;;;;4.50;1.17;;;;;;;;;;6186961;23;20017;-84
2022/02/07 00:37:26;;;;;;;2.38;1.10;;;;;;;;;;6162207;23;20024;-83
2022/02/07 00:40:00;;;;;;;1.85;0.80;;;;;;;;;;6163826;23;20027;-84
2022/02/07 00:42:31;;;;;;;2.28;1.27;;;;;;;;;;6188657;23;20249;-84
2022/02/07 00:45:06;;;;;;;3.90;0.82;;;;;;;;;;6164627;23;20447;-84
2022/02/07 00:47:32;;;;;;;1.30;0.80;;;;;;;;;;6163254;23;20080;-84
2022/02/07 00:49:58;;;;;;;1.00;0.65;;;;;;;;;;6159334;23;20070;-84
2022/02/07 00:52:25;;;;;;;2.95;0.85;;;;;;;;;;6162473;23;20023;-83
2022/02/07 00:54:54;;;;;;;1.25;0.60;;;;;;;;;;6161814;23;20069;-83
2022/02/07 00:57:20;;;;;;;2.42;0.57;;;;;;;;;;6160762;23;20031;-84
2022/02/07 00:59:46;;;;;;;1.52;0.40;;;;;;;;;;6161118;23;20027;-84
2022/02/07 01:02:13;;;;;;;1.60;0.20;;;;;;;;;;6160071;23;20024;-84
2022/02/07 01:04:42;;;;;;;2.40;0.40;;;;;;;;;;6186148;23;20036;-84
2022/02/07 01:07:09;;;;;;;1.50;0.73;;;;;;;;;;6162853;23;20039;-84
2022/02/07 01:09:42;;;;;;;1.98;0.28;;;;;;;;;;6187196;23;20356;-84
2022/02/07 01:15:04;;;;;;;2.60;0.40;;;;;;;;;;6191137;23;20024;-84
2022/02/07 01:20:48;;;;;;;1.40;0.30;;;;;;;;;;6187967;23;20024;-84
2022/02/07 01:23:18;;;;;;;3.70;0.40;;;;;;;;;;6192204;23;20099;-84
2022/02/07 01:46:14;;;;;;;1.85;0.52;;;;;;;;;;6188655;23;20027;-84
2022/02/07 01:48:09;;;;;;;1.20;0.40;;;;;;;;;;6187614;23;20350;-84
2022/02/07 01:51:02;;;;;;;2.03;0.35;;;;;;;;;;6162698;23;20095;-84
2022/02/07 01:53:55;;;;;;;2.78;0.47;;;;;;;;;;6165509;23;20040;-84
2022/02/07 01:56:26;;;;;;;2.95;0.70;;;;;;;;;;6166464;23;20051;-84
2022/02/07 01:58:59;;;;;;;2.40;0.70;;;;;;;;;;6187163;23;20017;-84
2022/02/07 02:01:26;;;;;;;1.88;0.50;;;;;;;;;;6160315;23;20115;-84
2022/02/07 02:03:54;;;;;;;1.90;0.47;;;;;;;;;;6161257;23;20478;-84
2022/02/07 02:06:22;;;;;;;2.65;0.75;;;;;;;;;;6186177;23;20049;-84
2022/02/07 02:08:49;;;;;;;2.40;0.40;;;;;;;;;;6160361;23;20064;-84
2022/02/07 02:11:15;;;;;;;3.45;0.70;;;;;;;;;;6161190;23;20095;-84
2022/02/07 02:16:22;;;;;;;2.90;0.38;;;;;;;;;;6188027;23;20016;-84
2022/02/07 02:32:42;;;;;;;3.58;0.43;;;;;;;;;;6188403;23;20021;-84
2022/02/07 02:32:57;;;;;;;1.80;0.70;;;;;;;;;;6188960;23;20035;-84
2022/02/07 02:35:38;;;;;;;2.63;0.45;;;;;;;;;;6191010;23;20017;-84
2022/02/07 02:38:17;;;;;;;1.08;0.38;;;;;;;;;;6164630;22;20028;-84
2022/02/07 02:46:19;;;;;;;4.70;1.02;;;;;;;;;;6188604;23;20079;-84
2022/02/07 02:48:45;;;;;;;4.78;1.10;;;;;;;;;;6163606;23;20020;-83
2022/02/07 02:51:13;;;;;;;4.43;0.63;;;;;;;;;;6185807;23;20032;-84
2022/02/07 02:53:44;;;;;;;1.85;0.50;;;;;;;;;;6161705;23;20080;-84
2022/02/07 02:56:09;;;;;;;1.90;0.65;;;;;;;;;;6149103;23;20353;-84
2022/02/07 02:58:35;;;;;;;2.42;0.60;;;;;;;;;;6160189;23;20037;-84
2022/02/07 03:01:01;;;;;;;7.60;0.93;;;;;;;;;;6208982;23;20066;-84
2022/02/07 03:03:26;;;;;;;2.40;0.68;;;;;;;;;;6150995;22;20506;-84
2022/02/07 03:05:52;;;;;;;1.83;0.73;;;;;;;;;;6159433;23;20062;-84
2022/02/07 03:08:20;;;;;;;2.15;0.70;;;;;;;;;;6184211;23;20017;-84
2022/02/07 03:10:59;;;;;;;5.18;0.68;;;;;;;;;;6183597;23;20032;-84
2022/02/07 03:18:36;;;;;;;3.13;0.60;;;;;;;;;;6187970;23;20039;-84
2022/02/07 03:21:02;;;;;;;2.13;0.43;;;;;;;;;;6156698;23;20095;-84
2022/02/07 03:23:30;;;;;;;3.88;0.98;;;;;;;;;;6183762;23;20021;-84
2022/02/07 03:25:58;;;;;;;5.20;0.70;;;;;;;;;;6158119;23;20104;-84
2022/02/07 03:28:25;;;;;;;2.97;1.00;;;;;;;;;;6183873;23;20017;-82
2022/02/07 03:30:51;;;;;;;1.05;0.43;;;;;;;;;;6158204;23;20068;-82
2022/02/07 03:33:17;;;;;;;2.55;0.77;;;;;;;;;;6183050;23;20024;-81
2022/02/07 03:35:45;;;;;;;4.07;0.75;;;;;;;;;;6159038;23;20063;-82
2022/02/07 03:38:12;;;;;;;4.35;0.82;;;;;;;;;;6159006;23;20039;-82
2022/02/07 03:40:38;;;;;;;1.13;0.50;;;;;;;;;;6158788;23;20122;-81
2022/02/07 03:43:04;;;;;;;4.00;0.90;;;;;;;;;;6184530;23;20103;-82
2022/02/07 03:45:31;;;;;;;4.75;0.90;;;;;;;;;;6160153;23;20009;-81
2022/02/07 03:47:58;;;;;;;3.58;0.60;;;;;;;;;;6160711;23;20068;-81
2022/02/07 03:50:24;;;;;;;4.68;0.90;;;;;;;;;;6160927;23;20020;-81
2022/02/07 03:52:50;;;;;;;2.00;0.70;;;;;;;;;;6158700;23;20025;-81
2022/02/07 03:55:16;;;;;;;4.70;1.02;;;;;;;;;;6157614;23;20027;-81
2022/02/07 03:57:42;;;;;;;9.02;1.17;;;;;;;;;;6182811;23;20048;-81
2022/02/07 04:00:09;;;;;;;3.35;1.08;;;;;;;;;;6183006;23;20082;-84
2022/02/07 04:02:40;;;;;;;15.02;1.92;;;;;;;;;;6158107;23;20013;-84
2022/02/07 04:05:35;;;;;;;4.05;0.90;;;;;;;;;;6160431;23;20621;-84
2022/02/07 04:07:55;;;;;;;6.50;1.10;;;;;;;;;;6189750;22;20212;-84
2022/02/07 04:10:24;;;;;;;2.70;0.73;;;;;;;;;;6159168;23;20399;-84
2022/02/07 04:12:57;;;;;;;2.85;0.98;;;;;;;;;;6159871;23;20023;-84
2022/02/07 04:15:23;;;;;;;4.63;1.35;;;;;;;;;;6161435;23;20020;-84
2022/02/07 04:17:56;;;;;;;5.03;1.00;;;;;;;;;;6159590;23;20127;-84
2022/02/07 04:20:22;;;;;;;5.80;1.00;;;;;;;;;;6161087;23;20026;-84
2022/02/07 04:22:47;;;;;;;1.55;1.20;;;;;;;;;;6158301;23;20017;-84
2022/02/07 04:25:13;;;;;;;4.30;1.00;;;;;;;;;;6158009;23;20379;-84
2022/02/07 04:27:39;;;;;;;6.88;1.13;;;;;;;;;;6158555;23;20525;-84
2022/02/07 04:30:06;;;;;;;5.00;0.93;;;;;;;;;;6156558;23;20020;-84
2022/02/07 04:32:32;;;;;;;5.72;1.08;;;;;;;;;;6182548;23;20116;-84
2022/02/07 04:34:58;;;;;;;7.57;1.15;;;;;;;;;;6182191;22;20072;-84
2022/02/07 04:37:25;;;;;;;5.05;0.80;;;;;;;;;;6182326;23;20020;-84
2022/02/07 04:39:52;;;;;;;4.88;0.85;;;;;;;;;;6181224;23;20021;-84
2022/02/07 04:42:19;;;;;;;7.28;1.10;;;;;;;;;;6159370;23;20071;-84
2022/02/07 04:45:09;;;;;;;6.40;1.10;;;;;;;;;;6159854;23;20033;-84
2022/02/07 04:50:37;;;;;;;3.25;0.77;;;;;;;;;;6188717;23;20027;-84
2022/02/07 04:53:19;;;;;;;2.55;0.77;;;;;;;;;;6166021;23;20040;-84
2022/02/07 04:56:16;;;;;;;6.63;1.00;;;;;;;;;;6165476;23;20439;-84
2022/02/07 05:01:28;;;;;;;4.20;1.40;;;;;;;;;;6184909;23;20392;-84
2022/02/07 05:04:00;;;;;;;13.30;5.28;;;;;;;;;;6163237;23;20027;-85
2022/02/07 05:14:43;;;;;;;7.00;1.02;;;;;;;;;;6189672;23;20028;-85
2022/02/07 05:17:09;;;;;;;3.42;0.80;;;;;;;;;;6162027;23;20009;-87
2022/02/07 05:19:35;;;;;;;5.13;0.85;;;;;;;;;;6161670;23;20024;-85
2022/02/07 05:22:01;;;;;;;2.42;0.70;;;;;;;;;;6159743;23;20021;-85
2022/02/07 05:24:27;;;;;;;3.42;0.63;;;;;;;;;;6181259;23;20019;-85
2022/02/07 05:26:53;;;;;;;3.65;1.90;;;;;;;;;;6158432;23;20031;-85
2022/02/07 05:29:19;;;;;;;4.55;0.68;;;;;;;;;;6159463;23;20100;-85
2022/02/07 05:31:45;;;;;;;3.30;0.73;;;;;;;;;;6186393;23;20324;-85
2022/02/07 05:34:10;;;;;;;4.70;1.42;;;;;;;;;;6158873;23;20020;-86
2022/02/07 05:36:57;;;;;;;4.30;0.90;;;;;;;;;;6137633;22;20021;-85
2022/02/07 05:39:31;;;;;;;5.55;1.42;;;;;;;;;;6183109;23;20042;-85
2022/02/07 05:42:03;;;;;;;5.82;1.10;;;;;;;;;;6187539;23;20044;-83
2022/02/07 05:44:29;;;;;;;4.63;1.17;;;;;;;;;;6160626;23;20082;-83
2022/02/07 05:46:55;;;;;;;8.07;1.00;;;;;;;;;;6160175;22;20024;-83
2022/02/07 05:49:24;;;;;;;3.38;0.95;;;;;;;;;;6161684;23;20023;-83
2022/02/07 05:51:50;;;;;;;4.38;0.60;;;;;;;;;;6162022;23;20020;-83
2022/02/07 05:54:18;;;;;;;5.22;1.20;;;;;;;;;;6154543;23;20396;-83
2022/02/07 05:56:47;;;;;;;5.90;1.10;;;;;;;;;;6183987;23;20015;-83
2022/02/07 05:59:12;;;;;;;5.03;1.23;;;;;;;;;;6159927;23;20031;-83
2022/02/07 06:01:38;;;;;;;5.10;1.13;;;;;;;;;;6158517;23;20020;-83
2022/02/07 06:04:07;;;;;;;6.18;0.90;;;;;;;;;;6144806;23;20020;-83
2022/02/07 06:06:33;;;;;;;5.85;1.30;;;;;;;;;;6161975;23;20506;-83
2022/02/07 06:08:59;;;;;;;4.25;1.00;;;;;;;;;;6185257;23;20021;-84
2022/02/07 06:11:25;;;;;;;5.05;0.90;;;;;;;;;;6160994;23;20069;-83
2022/02/07 06:13:50;;;;;;;7.05;1.20;;;;;;;;;;6159776;23;20095;-85
2022/02/07 06:16:17;;;;;;;4.00;0.75;;;;;;;;;;6160494;23;20323;-84
2022/02/07 06:18:47;;;;;;;8.95;1.45;;;;;;;;;;6161047;23;20040;-84
2022/02/07 06:21:15;;;;;;;3.17;0.70;;;;;;;;;;6163609;23;20520;-83
2022/02/07 06:23:42;;;;;;;4.93;1.15;;;;;;;;;;6160767;23;20450;-84
2022/02/07 06:26:10;;;;;;;7.63;1.17;;;;;;;;;;6161470;23;20024;-84
2022/02/07 06:28:35;;;;;;;3.67;0.90;;;;;;;;;;6185833;23;20020;-83
2022/02/07 06:31:03;;;;;;;6.10;1.00;;;;;;;;;;6156974;23;20084;-83
2022/02/07 06:33:28;;;;;;;7.00;1.83;;;;;;;;;;6156109;23;20016;-83
2022/02/07 06:35:54;;;;;;;5.78;1.27;;;;;;;;;;6157537;23;20016;-82
2022/02/07 06:38:20;;;;;;;2.58;1.42;;;;;;;;;;6157114;23;20030;-84
2022/02/07 06:40:47;;;;;;;5.35;0.90;;;;;;;;;;6157785;23;20028;-83
2022/02/07 06:43:13;;;;;;;4.60;0.93;;;;;;;;;;6182050;23;20117;-83
2022/02/07 06:45:39;;;;;;;4.00;0.95;;;;;;;;;;6182888;23;20020;-84
2022/02/07 06:48:06;;;;;;;5.15;1.42;;;;;;;;;;6157151;23;20055;-83
2022/02/07 06:50:32;;;;;;;7.90;1.90;;;;;;;;;;6157464;23;20047;-83
2022/02/07 06:53:02;;;;;;;6.20;1.25;;;;;;;;;;6153253;23;20030;-83
2022/02/07 06:55:28;;;;;;;8.38;1.08;;;;;;;;;;6150682;23;20016;-84
2022/02/07 06:57:54;;;;;;;5.65;1.17;;;;;;;;;;6156975;23;20013;-84
2022/02/07 07:00:22;;;;;;;3.33;1.00;;;;;;;;;;6157465;23;20454;-84
2022/02/07 07:02:48;;;;;;;8.82;1.25;;;;;;;;;;6156064;23;20405;-84
2022/02/07 07:05:20;;;;;;;7.07;1.42;;;;;;;;;;6134289;23;20088;-83
2022/02/07 07:07:47;;;;;;;7.47;1.38;;;;;;;;;;6161010;23;20018;-83
2022/02/07 07:10:15;;;;;;;3.58;1.00;;;;;;;;;;6159415;23;20016;-83
2022/02/07 07:12:43;;;;;;;8.32;1.42;;;;;;;;;;6145018;23;20040;-84
2022/02/07 07:17:36;;;;;;;6.18;0.90;;;;;;;;;;6181117;23;20039;-84
2022/02/07 07:20:11;;;;;;;3.30;1.23;;;;;;;;;;6151473;23;20043;-83
2022/02/07 07:22:38;;;;;;;11.70;1.40;;;;;;;;;;6148198;23;20017;-83
2022/02/07 07:25:05;;;;;;;6.30;1.23;;;;;;;;;;6150055;23;20111;-83
2022/02/07 07:27:44;;;;;;;3.40;1.20;;;;;;;;;;6152305;23;20024;-84
2022/02/07 07:30:12;;;;;;;4.35;0.77;;;;;;;;;;6161004;23;20020;-84
2022/02/07 07:32:38;;;;;;;6.18;1.33;;;;;;;;;;6143485;23;20017;-83
2022/02/07 07:35:04;;;;;;;7.53;1.08;;;;;;;;;;6179107;23;20508;-83
2022/02/07 07:37:29;;;;;;;5.60;1.63;;;;;;;;;;6182348;23;20012;-83
2022/02/07 07:39:55;;;;;;;3.47;1.23;;;;;;;;;;6181911;23;20074;-83
2022/02/07 07:42:21;;;;;;;6.28;1.20;;;;;;;;;;6142787;23;20287;-83
2022/02/07 07:44:57;;;;;;;6.93;1.20;;;;;;;;;;6142790;23;20074;-84
2022/02/07 07:47:27;;;;;;;5.80;1.23;;;;;;;;;;6126861;23;20090;-83
2022/02/07 07:50:11;;;;;;;4.18;1.10;;;;;;;;;;6156079;23;20035;-83
2022/02/07 07:53:04;;;;;;;8.32;1.23;;;;;;;;;;6158127;23;20029;-84
2022/02/07 08:01:49;;;;;;;3.60;1.30;;;;;;;;;;6167781;23;20023;-83
2022/02/07 08:04:56;;;;;;;8.25;1.30;;;;;;;;;;6176273;22;20019;-83
2022/02/07 08:07:28;;;;;;;4.57;1.17;;;;;;;;;;6099033;23;20021;-83
2022/02/07 08:10:29;;;;;;;7.35;1.40;;;;;;;;;;6136877;23;20017;-82
2022/02/07 08:12:54;;;;;;;5.15;1.13;;;;;;;;;;6188016;22;20016;-83
2022/02/07 08:16:03;;;;;;;9.30;1.17;;;;;;;;;;6166082;22;20036;-84
2022/02/07 08:18:30;;;;;;;4.65;1.00;;;;;;;;;;6138955;22;20017;-83
2022/02/07 08:21:04;;;;;;;4.32;1.35;;;;;;;;;;6141086;23;20465;-83
2022/02/07 08:23:35;;;;;;;;;;;;;;;;;;6154720;23;20476;-83
2022/02/07 08:26:03;;;;;;;9.15;0.95;;;;;;;;;;6154911;23;20201;-82
2022/02/07 08:28:29;;;;;;;7.03;1.17;;;;;;;;;;6155348;23;20083;-83
2022/02/07 08:30:55;;;;;;;9.82;1.60;;;;;;;;;;6110193;23;20017;-82
2022/02/07 08:33:22;;;;;;;6.15;1.58;;;;;;;;;;6150119;23;20017;-83
2022/02/07 08:35:53;;;;;;;5.38;1.20;;;;;;;;;;6164042;22;20065;-83
2022/02/07 08:38:21;;;;;;;5.78;1.02;;;;;;;;;;6207178;23;20013;-83
2022/02/07 08:44:09;;;;;;;9.45;2.15;;;;;;;;;;6213617;22;20031;-83
2022/02/07 08:46:37;;;;;;;7.20;1.40;;;;;;;;;;6179156;22;20096;-84
2022/02/07 08:52:27;;;;;;;8.82;2.13;;;;;;;;;;6151518;22;20478;-83
2022/02/07 08:54:55;;;;;;;8.07;2.30;;;;;;;;;;6163538;23;20450;-83
2022/02/07 08:57:45;;;;;;;12.52;2.50;;;;;;;;;;6127054;23;20051;-82
2022/02/07 09:00:24;;;;;;;9.48;1.98;;;;;;;;;;6185864;23;20074;-83
2022/02/07 09:03:13;;;;;;;6.57;2.20;;;;;;;;;;6174143;22;20051;-82
2022/02/07 09:08:36;;;;;;;11.05;1.40;;;;;;;;;;6116740;23;20024;-82
2022/02/07 09:11:25;;;;;;;8.20;1.40;;;;;;;;;;6143688;22;20021;-82
2022/02/07 09:13:54;;;;;;;7.40;1.42;;;;;;;;;;6119089;23;20028;-82
2022/02/07 09:17:15;;;;;;;7.97;1.35;;;;;;;;;;6129613;22;20488;-83
2022/02/07 09:20:35;;;;;;;8.65;1.55;;;;;;;;;;6148844;22;20021;-82
2022/02/07 09:26:43;;;;;;;12.20;1.73;;;;;;;;;;6138423;23;20103;-82
2022/02/07 09:29:27;;;;;;;8.27;2.42;;;;;;;;;;6166092;23;20514;-82
2022/02/07 09:32:28;;;;;;;6.00;1.52;;;;;;;;;;6129765;22;20016;-81
2022/02/07 09:35:34;;;;;;;;;;;;;;;;;;;;;
2022/02/07 09:38:25;;;;;;;8.77;1.73;;;;;;;;;;6145481;22;20449;-82
2022/02/07 09:41:24;;;;;;;8.57;1.52;;;;;;;;;;6098316;23;20624;-82
2022/02/07 09:43:51;;;;;;;3.80;1.27;;;;;;;;;;6174868;22;20012;-82
2022/02/07 09:46:35;;;;;;;7.85;1.38;;;;;;;;;;6145973;23;20044;-81
2022/02/07 09:49:17;;;;;;;3.88;0.85;;;;;;;;;;6161144;23;20028;-82
2022/02/07 09:51:45;;;;;;;8.98;1.52;;;;;;;;;;6153659;23;20403;-82
2022/02/07 09:54:19;;;;;;;12.25;1.95;;;;;;;;;;6158493;23;20844;-82
2022/02/07 09:56:56;;;;;;;10.07;1.77;;;;;;;;;;6158317;23;20031;-82
2022/02/07 09:59:30;;;;;;;10.48;1.80;;;;;;;;;;6118885;22;20017;-82
2022/02/07 10:02:01;;;;;;;8.75;1.70;;;;;;;;;;6145336;23;20020;-82
2022/02/07 10:04:42;;;;;;;8.93;1.70;;;;;;;;;;6132350;22;20024;-82
2022/02/07 10:07:57;;;;;;;9.20;1.80;;;;;;;;;;6132165;23;20035;-82
2022/02/07 10:10:37;;;;;;;5.28;1.67;;;;;;;;;;6139210;23;20021;-82
2022/02/07 10:13:20;;;;;;;7.85;1.67;;;;;;;;;;6160633;23;20024;-82
2022/02/07 10:16:10;;;;;;;;;;;;;;;;;;;;;
2022/02/07 10:18:55;;;;;;;12.35;1.60;;;;;;;;;;6098774;23;21777;-81
2022/02/07 10:21:53;;;;;;;11.57;1.73;;;;;;;;;;6144792;23;20068;-83
2022/02/07 10:55:04;;;;;;;;;;;;;;;;;;;;;
2022/02/07 11:28:32;;;;;;;10.30;1.85;;;;;;;;;;5918026;24;20043;-84
2022/02/07 11:31:00;;;;;;;12.55;2.58;;;;;;;;;;6052638;22;20028;-84
2022/02/07 11:36:41;;;;;;;9.38;1.83;;;;;;;;;;6087753;23;20081;-84
2022/02/07 11:39:20;;;;;;;16.35;2.72;;;;;;;;;;6163346;23;20040;-83
2022/02/07 11:45:41;;;;;;;11.52;2.30;;;;;;;;;;6135570;22;20480;-84
2022/02/07 11:48:12;;;;;;;13.27;2.10;;;;;;;;;;6202938;22;20099;-84
2022/02/07 11:50:44;;;;;;;12.43;1.90;;;;;;;;;;6152269;23;20518;-84
2022/02/07 11:53:38;;;;;;;10.90;2.05;;;;;;;;;;6116019;22;20102;-83
2022/02/07 11:56:58;;;;;;;10.52;2.65;;;;;;;;;;6174316;22;20071;-85
2022/02/07 11:59:43;;;;;;;12.63;2.47;;;;;;;;;;6117471;23;20021;-84
2022/02/07 12:02:19;;;;;;;15.57;2.90;;;;;;;;;;6115323;23;20078;-84
2022/02/07 12:04:45;;;;;;;13.18;2.05;;;;;;;;;;6138504;23;20357;-84
2022/02/07 12:07:26;;;;;;;11.88;2.30;;;;;;;;;;6148807;23;20024;-84
2022/02/07 12:09:59;;;;;;;12.48;2.53;;;;;;;;;;6135897;23;20031;-84
2022/02/07 12:13:30;;;;;;;11.30;2.58;;;;;;;;;;6163719;22;20016;-84
2022/02/07 12:15:55;;;;;;;19.48;3.67;;;;;;;;;;6138155;23;20060;-84
2022/02/07 12:18:39;;;;;;;13.25;2.53;;;;;;;;;;6139650;23;20096;-84
2022/02/07 12:21:28;;;;;;;14.98;2.67;;;;;;;;;;6074425;23;20032;-83
2022/02/07 12:33:41;;;;;;;15.45;3.00;;;;;;;;;;6140519;23;20030;-84
2022/02/07 12:39:58;;;;;;;11.10;2.05;;;;;;;;;;6100381;23;20266;-84
2022/02/07 12:42:43;;;;;;;18.02;3.92;;;;;;;;;;6147702;22;20561;-83
2022/02/07 12:45:28;;;;;;;10.68;2.10;;;;;;;;;;6161716;23;20069;-84
2022/02/07 12:51:42;;;;;;;;;;;;;;;;;;;;;
2022/02/07 13:31:58;;;;;;;17.67;3.60;;;;;;;;;;6102390;23;20160;-84
2022/02/07 13:37:54;;;;;;;14.57;3.20;;;;;;;;;;6115023;23;20027;-84
2022/02/07 13:44:25;;;;;;;11.57;2.90;;;;;;;;;;6169363;22;20072;-84
2022/02/07 13:47:46;;;;;;;13.05;2.60;;;;;;;;;;6128555;22;20016;-83
2022/02/07 13:50:45;;;;;;;13.98;3.08;;;;;;;;;;6030451;23;20436;-84
2022/02/07 13:53:32;;;;;;;;;;;;;;;;;;;;;
2022/02/07 13:56:11;;;;;;;13.55;3.35;;;;;;;;;;6034622;23;20028;-84
2022/02/07 13:59:10;;;;;;;12.50;2.90;;;;;;;;;;6024734;23;20022;-83
2022/02/07 14:05:47;;;;;;;12.15;3.22;;;;;;;;;;6020421;23;20094;-85
2022/02/07 14:12:36;;;;;;;;;;;;;;;;;;;;;
2022/02/07 14:15:17;;;;;;;;;;;;;;;;;;;;;
2022/02/07 14:19:22;;;;;;;14.48;3.30;;;;;;;;;;6057119;23;20117;-84
2022/02/07 14:21:38;;;;;;;11.68;2.47;;;;;;;;;;6090782;23;20021;-83
2022/02/07 14:24:32;;;;;;;;;;;;;;;;;;;;;
2022/02/07 14:27:34;;;;;;;8.70;2.53;;;;;;;;;;6143718;23;20096;-83
2022/02/07 14:30:09;;;;;;;11.32;5.90;;;;;;;;;;6060090;23;20017;-83
2022/02/07 14:32:35;;;;;;;13.32;4.60;;;;;;;;;;6123255;23;20021;-83
2022/02/07 14:39:13;;;;;;;10.15;1.63;;;;;;;;;;6158873;22;20055;-84
2022/02/07 14:42:33;;;;;;;11.20;2.13;;;;;;;;;;6088066;23;20108;-83
2022/02/07 14:48:08;;;;;;;24.63;12.50;;;;;;;;;;6119344;23;20042;-84
2022/02/07 14:50:34;;;;;;;14.30;4.75;;;;;;;;;;6061615;23;20025;-83
2022/02/07 14:53:35;;;;;;;11.10;1.98;;;;;;;;;;6149240;23;20017;-84
2022/02/07 14:56:01;;;;;;;11.55;2.55;;;;;;;;;;6163373;23;20017;-83
2022/02/07 14:58:27;;;;;;;10.57;3.05;;;;;;;;;;6156273;23;20405;-84
2022/02/07 15:00:57;;;;;;;30.10;13.75;;;;;;;;;;6120771;23;20028;-84
2022/02/07 15:03:41;;;;;;;11.02;4.63;;;;;;;;;;6145710;22;20020;-84
2022/02/07 15:06:07;;;;;;;10.75;4.20;;;;;;;;;;6169010;22;20029;-89
2022/02/07 15:08:33;;;;;;;9.15;2.00;;;;;;;;;;6175336;23;20535;-86
2022/02/07 15:11:01;;;;;;;10.48;2.10;;;;;;;;;;6175741;22;20025;-86
2022/02/07 15:14:23;;;;;;;13.20;3.30;;;;;;;;;;6171557;22;20042;-84
2022/02/07 15:16:49;;;;;;;9.82;2.05;;;;;;;;;;6217718;22;20016;-84
2022/02/07 15:20:09;;;;;;;10.95;2.00;;;;;;;;;;6167957;23;20021;-84
2022/02/07 15:33:09;;;;;;;10.07;2.80;;;;;;;;;;6059858;23;20390;-84
2022/02/07 15:35:52;;;;;;;11.05;2.78;;;;;;;;;;6023857;23;20035;-83
2022/02/07 15:55:42;;;;;;;11.30;3.05;;;;;;;;;;5960768;23;20036;-86
2022/02/07 15:58:29;;;;;;;11.75;2.83;;;;;;;;;;5903738;23;20527;-85
2022/02/07 16:01:14;;;;;;;10.80;3.80;;;;;;;;;;5985358;23;20018;-85
2022/02/07 16:08:13;;;;;;;9.77;3.03;;;;;;;;;;5945372;24;20016;-86
2022/02/07 16:14:12;;;;;;;11.98;3.28;;;;;;;;;;5796036;24;20350;-85
2022/02/07 16:17:10;;;;;;;11.40;2.88;;;;;;;;;;5896660;24;20025;-85
2022/02/07 16:20:07;;;;;;;15.50;4.20;;;;;;;;;;5942876;23;20020;-84
2022/02/07 16:26:07;;;;;;;12.65;4.57;;;;;;;;;;6030918;23;20026;-85
2022/02/07 16:35:17;;;;;;;15.88;4.57;;;;;;;;;;6102498;22;20088;-83
2022/02/07 16:37:43;;;;;;;18.58;3.30;;;;;;;;;;6217831;22;20501;-84
2022/02/07 16:40:09;;;;;;;15.88;3.50;;;;;;;;;;6216036;22;20090;-83
2022/02/07 16:42:36;;;;;;;16.80;3.42;;;;;;;;;;6210485;23;20048;-82
2022/02/07 16:45:06;;;;;;;7.47;3.03;;;;;;;;;;6159600;23;20031;-82
2022/02/07 16:47:32;;;;;;;7.55;1.85;;;;;;;;;;6186059;23;20112;-83
2022/02/07 16:49:58;;;;;;;15.68;3.38;;;;;;;;;;6186244;23;20102;-83
2022/02/07 16:52:24;;;;;;;18.27;3.85;;;;;;;;;;6159990;23;20047;-82
2022/02/07 16:54:50;;;;;;;13.93;3.80;;;;;;;;;;6160960;23;20031;-83
2022/02/07 16:57:16;;;;;;;20.90;3.80;;;;;;;;;;6208988;23;20021;-83
2022/02/07 16:59:42;;;;;;;16.35;4.45;;;;;;;;;;6209298;23;20405;-83
2022/02/07 17:02:08;;;;;;;13.20;3.25;;;;;;;;;;6159812;23;20036;-83
2022/02/07 17:04:33;;;;;;;8.57;3.00;;;;;;;;;;6159289;23;20386;-84
2022/02/07 17:07:00;;;;;;;10.38;3.22;;;;;;;;;;6158869;23;20024;-82
2022/02/07 17:09:26;;;;;;;12.88;3.03;;;;;;;;;;6159193;23;20384;-82
2022/02/07 17:11:52;;;;;;;15.15;2.50;;;;;;;;;;6185203;23;20025;-82
2022/02/07 17:14:18;;;;;;;19.38;3.83;;;;;;;;;;6161844;23;20021;-83
2022/02/07 17:16:48;;;;;;;15.43;3.65;;;;;;;;;;6184938;23;20024;-82
2022/02/07 17:19:14;;;;;;;16.90;4.05;;;;;;;;;;6212203;23;20426;-82
2022/02/07 17:21:40;;;;;;;22.63;4.47;;;;;;;;;;6162696;23;20013;-82
2022/02/07 17:24:06;;;;;;;10.18;2.65;;;;;;;;;;6160657;23;20339;-82
2022/02/07 17:26:32;;;;;;;13.32;2.80;;;;;;;;;;6157874;23;20407;-82
2022/02/07 17:29:01;;;;;;;11.75;2.30;;;;;;;;;;6184570;23;20106;-83
2022/02/07 17:31:27;;;;;;;15.20;3.50;;;;;;;;;;6162649;23;20024;-83
2022/02/07 17:33:52;;;;;;;11.40;3.50;;;;;;;;;;6162662;23;20099;-83
2022/02/07 17:36:18;;;;;;;14.88;3.60;;;;;;;;;;6162408;23;20072;-83
2022/02/07 17:38:44;;;;;;;15.07;4.65;;;;;;;;;;6163231;23;20036;-83
2022/02/07 17:41:13;;;;;;;14.10;3.58;;;;;;;;;;6169971;23;78266;-83
2022/02/07 17:43:44;;;;;;;19.33;3.55;;;;;;;;;;6186518;23;20021;-83
2022/02/07 17:46:11;;;;;;;19.13;5.10;;;;;;;;;;6187261;23;20023;-83
2022/02/07 17:48:37;;;;;;;18.25;3.67;;;;;;;;;;6211485;23;20063;-83
2022/02/07 17:51:04;;;;;;;17.52;4.78;;;;;;;;;;6185089;23;20107;-83
2022/02/07 17:53:30;;;;;;;14.73;5.60;;;;;;;;;;6210832;23;20099;-83
2022/02/07 17:55:57;;;;;;;12.82;3.92;;;;;;;;;;6215298;23;20024;-83
2022/02/07 17:58:24;;;;;;;16.35;4.10;;;;;;;;;;6215802;23;20139;-84
2022/02/07 18:00:51;;;;;;;18.13;4.63;;;;;;;;;;6191898;23;20020;-84
2022/02/07 18:03:17;;;;;;;14.35;3.50;;;;;;;;;;6190758;23;20492;-84
2022/02/07 18:05:44;;;;;;;19.92;4.55;;;;;;;;;;6190157;23;20100;-83
2022/02/07 18:08:11;;;;;;;15.77;3.67;;;;;;;;;;6191158;23;20021;-84
2022/02/07 18:10:37;;;;;;;10.95;2.72;;;;;;;;;;6192525;23;20063;-84
2022/02/07 18:13:03;;;;;;;16.48;3.20;;;;;;;;;;6214443;23;20024;-83
2022/02/07 18:15:29;;;;;;;10.95;2.90;;;;;;;;;;6189335;23;20462;-84
2022/02/07 18:17:55;;;;;;;17.80;3.42;;;;;;;;;;6189893;23;20077;-83
2022/02/07 18:20:24;;;;;;;14.63;3.22;;;;;;;;;;6189447;23;20399;-84
2022/02/07 18:22:53;;;;;;;17.00;4.85;;;;;;;;;;6214741;23;20024;-83
2022/02/07 18:25:21;;;;;;;12.85;3.28;;;;;;;;;;6210005;23;20077;-84
2022/02/07 18:28:15;;;;;;;15.60;3.30;;;;;;;;;;6209428;23;20052;-84
2022/02/07 18:34:10;;;;;;;15.40;2.70;;;;;;;;;;6050586;23;20063;-84
2022/02/07 18:36:49;;;;;;;11.20;2.63;;;;;;;;;;6187944;23;20032;-84
2022/02/07 18:43:14;;;;;;;16.52;2.78;;;;;;;;;;6133854;23;20434;-84
2022/02/07 18:45:41;;;;;;;11.98;2.63;;;;;;;;;;6098224;23;20022;-84
2022/02/07 18:48:12;;;;;;;13.63;2.67;;;;;;;;;;6157665;23;20021;-85
2022/02/07 18:50:40;;;;;;;16.77;3.40;;;;;;;;;;6203657;23;20023;-84
2022/02/07 18:53:07;;;;;;;16.95;3.88;;;;;;;;;;6181846;23;20028;-84
2022/02/07 18:56:29;;;;;;;;;;;;;;;;;;;;;
2022/02/07 18:59:33;;;;;;;17.48;3.33;;;;;;;;;;6169851;23;20026;-84
2022/02/07 19:05:07;;;;;;;14.30;2.38;;;;;;;;;;6199198;23;20019;-84
2022/02/07 19:07:33;;;;;;;12.93;3.17;;;;;;;;;;6208497;23;20020;-84
2022/02/07 19:09:58;;;;;;;21.98;3.63;;;;;;;;;;6185912;23;20044;-85
2022/02/07 19:12:24;;;;;;;17.33;2.80;;;;;;;;;;6211920;23;20025;-86
2022/02/07 19:14:51;;;;;;;12.27;2.80;;;;;;;;;;6188991;23;20044;-85
2022/02/07 19:17:19;;;;;;;11.18;2.40;;;;;;;;;;6211735;23;20362;-86
2022/02/07 19:19:54;;;;;;;12.20;2.63;;;;;;;;;;6214096;23;20091;-85
2022/02/07 19:22:24;;;;;;;20.48;3.58;;;;;;;;;;6190725;23;20020;-85
2022/02/07 19:24:56;;;;;;;15.13;2.42;;;;;;;;;;6174779;23;20043;-86
2022/02/07 19:27:50;;;;;;;14.23;2.70;;;;;;;;;;6165475;23;20352;-85
2022/02/07 19:30:20;;;;;;;16.80;2.90;;;;;;;;;;6188684;23;20079;-87
2022/02/07 19:33:08;;;;;;;16.52;3.72;;;;;;;;;;6175345;23;20053;-86
2022/02/07 19:35:43;;;;;;;21.70;4.05;;;;;;;;;;6187094;23;20024;-85
2022/02/07 19:38:09;;;;;;;19.00;2.90;;;;;;;;;;6202561;23;20024;-85
2022/02/07 19:40:46;;;;;;;13.45;3.45;;;;;;;;;;6189143;23;20024;-86
2022/02/07 19:43:24;;;;;;;19.60;3.60;;;;;;;;;;6190361;23;21465;-86
2022/02/07 19:45:50;;;;;;;9.30;2.65;;;;;;;;;;6212997;23;20332;-85
2022/02/07 19:48:17;;;;;;;14.18;2.78;;;;;;;;;;6185507;23;20059;-85
2022/02/07 19:50:43;;;;;;;13.80;2.35;;;;;;;;;;6197027;23;20049;-85
2022/02/07 19:53:29;;;;;;;16.17;2.55;;;;;;;;;;6197683;23;20016;-86
2022/02/07 19:55:54;;;;;;;12.75;2.47;;;;;;;;;;6167846;23;20043;-85
2022/02/07 19:58:20;;;;;;;9.32;2.38;;;;;;;;;;6196465;23;20750;-85
2022/02/07 20:00:47;;;;;;;18.98;3.13;;;;;;;;;;6214560;23;20055;-86
2022/02/07 20:03:17;;;;;;;14.23;3.58;;;;;;;;;;6188921;23;20034;-85
2022/02/07 20:05:53;;;;;;;15.65;3.28;;;;;;;;;;6173939;23;20060;-86
2022/02/07 20:08:24;;;;;;;12.32;3.03;;;;;;;;;;6183379;23;20066;-86
2022/02/07 20:10:52;;;;;;;17.30;2.80;;;;;;;;;;6182317;23;20017;-86
2022/02/07 20:13:22;;;;;;;16.55;2.75;;;;;;;;;;6199875;23;20035;-86